sensor_id;sensor_type;location;lat;lon;timestamp;temperature;humidity
52187;DHT22;38161;53.020;6.598;2022-07-10T00:00:33;14.60;99.90
52187;DHT22;38161;53.020;6.598;2022-07-10T00:03:01;14.60;99.90
52187;DHT22;38161;53.020;6.598;2022-07-10T00:05:28;14.60;99.90
52187;DHT22;38161;53.020;6.598;2022-07-10T00:07:54;14.60;99.90
52187;DHT22;38161;53.020;6.598;2022-07-10T00:10:20;14.60;99.90
52187;DHT22;38161;53.020;6.598;2022-07-10T00:12:47;14.60;99.90
52187;DHT22;38161;53.020;6.598;2022-07-10T00:15:15;14.60;99.90
52187;DHT22;38161;53.020;6.598;2022-07-10T00:17:41;14.50;99.90
52187;DHT22;38161;53.020;6.598;2022-07-10T00:20:08;14.50;99.90
52187;DHT22;38161;53.020;6.598;2022-07-10T00:22:34;14.40;99.90
52187;DHT22;38161;53.020;6.598;2022-07-10T00:25:01;14.40;99.90
52187;DHT22;38161;53.020;6.598;2022-07-10T00:27:27;14.40;99.90
52187;DHT22;38161;53.020;6.598;2022-07-10T00:29:53;14.40;99.90
52187;DHT22;38161;53.020;6.598;2022-07-10T00:32:19;14.30;99.90
52187;DHT22;38161;53.020;6.598;2022-07-10T00:34:44;14.30;99.90
52187;DHT22;38161;53.020;6.598;2022-07-10T00:37:10;14.30;99.90
52187;DHT22;38161;53.020;6.598;2022-07-10T00:39:36;14.30;99.90
52187;DHT22;38161;53.020;6.598;2022-07-10T00:42:13;14.30;99.90
52187;DHT22;38161;53.020;6.598;2022-07-10T00:44:42;14.30;99.90
52187;DHT22;38161;53.020;6.598;2022-07-10T00:47:10;14.30;99.90
52187;DHT22;38161;53.020;6.598;2022-07-10T00:49:37;14.30;99.90
52187;DHT22;38161;53.020;6.598;2022-07-10T00:52:10;14.30;99.90
52187;DHT22;38161;53.020;6.598;2022-07-10T00:54:36;14.30;99.90
52187;DHT22;38161;53.020;6.598;2022-07-10T00:57:04;14.30;99.90
52187;DHT22;38161;53.020;6.598;2022-07-10T00:59:31;14.30;99.90
52187;DHT22;38161;53.020;6.598;2022-07-10T01:01:57;14.30;99.90
52187;DHT22;38161;53.020;6.598;2022-07-10T01:04:22;14.20;99.90
52187;DHT22;38161;53.020;6.598;2022-07-10T01:06:49;14.20;99.90
52187;DHT22;38161;53.020;6.598;2022-07-10T01:09:15;14.20;99.90
52187;DHT22;38161;53.020;6.598;2022-07-10T01:11:41;14.20;99.90
52187;DHT22;38161;53.020;6.598;2022-07-10T01:14:07;14.20;99.90
52187;DHT22;38161;53.020;6.598;2022-07-10T01:16:34;14.20;99.90
52187;DHT22;38161;53.020;6.598;2022-07-10T01:18:59;14.20;99.90
52187;DHT22;38161;53.020;6.598;2022-07-10T01:21:29;14.30;99.90
52187;DHT22;38161;53.020;6.598;2022-07-10T01:23:55;14.20;99.90
52187;DHT22;38161;53.020;6.598;2022-07-10T01:26:21;14.20;99.90
52187;DHT22;38161;53.020;6.598;2022-07-10T01:28:53;14.10;99.90
52187;DHT22;38161;53.020;6.598;2022-07-10T01:31:19;14.10;99.90
52187;DHT22;38161;53.020;6.598;2022-07-10T01:33:46;14.10;99.90
52187;DHT22;38161;53.020;6.598;2022-07-10T01:36:12;14.10;99.90
52187;DHT22;38161;53.020;6.598;2022-07-10T01:38:42;14.00;99.90
52187;DHT22;38161;53.020;6.598;2022-07-10T01:41:07;14.00;99.90
52187;DHT22;38161;53.020;6.598;2022-07-10T01:43:35;14.00;99.90
52187;DHT22;38161;53.020;6.598;2022-07-10T01:46:02;13.90;99.90
52187;DHT22;38161;53.020;6.598;2022-07-10T01:48:29;13.90;99.90
52187;DHT22;38161;53.020;6.598;2022-07-10T01:50:55;13.90;99.90
52187;DHT22;38161;53.020;6.598;2022-07-10T01:53:21;13.80;99.90
52187;DHT22;38161;53.020;6.598;2022-07-10T01:55:46;13.80;99.90
52187;DHT22;38161;53.020;6.598;2022-07-10T01:58:12;13.80;99.90
52187;DHT22;38161;53.020;6.598;2022-07-10T02:00:38;13.80;99.90
52187;DHT22;38161;53.020;6.598;2022-07-10T02:03:04;13.70;99.90
52187;DHT22;38161;53.020;6.598;2022-07-10T02:05:48;13.70;99.90
52187;DHT22;38161;53.020;6.598;2022-07-10T02:08:13;13.70;99.90
52187;DHT22;38161;53.020;6.598;2022-07-10T02:10:39;13.70;99.90
52187;DHT22;38161;53.020;6.598;2022-07-10T02:13:05;13.70;99.90
52187;DHT22;38161;53.020;6.598;2022-07-10T02:15:30;13.60;99.90
52187;DHT22;38161;53.020;6.598;2022-07-10T02:17:56;13.70;99.90
52187;DHT22;38161;53.020;6.598;2022-07-10T02:20:22;13.60;99.90
52187;DHT22;38161;53.020;6.598;2022-07-10T02:22:48;13.50;99.90
52187;DHT22;38161;53.020;6.598;2022-07-10T02:25:13;13.50;99.90
52187;DHT22;38161;53.020;6.598;2022-07-10T02:27:39;13.50;99.90
52187;DHT22;38161;53.020;6.598;2022-07-10T02:30:05;13.50;99.90
52187;DHT22;38161;53.020;6.598;2022-07-10T02:32:31;13.50;99.90
52187;DHT22;38161;53.020;6.598;2022-07-10T02:34:57;13.40;99.90
52187;DHT22;38161;53.020;6.598;2022-07-10T02:37:22;13.40;99.90
52187;DHT22;38161;53.020;6.598;2022-07-10T02:39:48;13.30;99.90
52187;DHT22;38161;53.020;6.598;2022-07-10T02:42:14;13.30;99.90
52187;DHT22;38161;53.020;6.598;2022-07-10T02:44:40;13.30;99.90
52187;DHT22;38161;53.020;6.598;2022-07-10T02:47:05;13.30;99.90
52187;DHT22;38161;53.020;6.598;2022-07-10T02:49:31;13.30;99.90
52187;DHT22;38161;53.020;6.598;2022-07-10T02:51:58;13.30;99.90
52187;DHT22;38161;53.020;6.598;2022-07-10T02:54:24;13.30;99.90
52187;DHT22;38161;53.020;6.598;2022-07-10T02:56:50;13.30;99.90
52187;DHT22;38161;53.020;6.598;2022-07-10T02:59:16;13.30;99.90
52187;DHT22;38161;53.020;6.598;2022-07-10T03:01:44;13.30;99.90
52187;DHT22;38161;53.020;6.598;2022-07-10T03:04:09;13.30;99.90
52187;DHT22;38161;53.020;6.598;2022-07-10T03:06:35;13.20;99.90
52187;DHT22;38161;53.020;6.598;2022-07-10T03:09:01;13.20;99.90
52187;DHT22;38161;53.020;6.598;2022-07-10T03:11:26;13.20;99.90
52187;DHT22;38161;53.020;6.598;2022-07-10T03:13:52;13.20;99.90
52187;DHT22;38161;53.020;6.598;2022-07-10T03:16:18;13.20;99.90
52187;DHT22;38161;53.020;6.598;2022-07-10T03:18:43;13.20;99.90
52187;DHT22;38161;53.020;6.598;2022-07-10T03:21:11;13.20;99.90
52187;DHT22;38161;53.020;6.598;2022-07-10T03:23:36;13.20;99.90
52187;DHT22;38161;53.020;6.598;2022-07-10T03:26:05;13.10;99.90
52187;DHT22;38161;53.020;6.598;2022-07-10T03:28:31;13.10;99.90
52187;DHT22;38161;53.020;6.598;2022-07-10T03:30:56;13.20;99.90
52187;DHT22;38161;53.020;6.598;2022-07-10T03:33:22;13.20;99.90
52187;DHT22;38161;53.020;6.598;2022-07-10T03:35:48;13.20;99.90
52187;DHT22;38161;53.020;6.598;2022-07-10T03:38:14;13.20;99.90
52187;DHT22;38161;53.020;6.598;2022-07-10T03:40:39;13.20;99.90
52187;DHT22;38161;53.020;6.598;2022-07-10T03:43:05;13.20;99.90
52187;DHT22;38161;53.020;6.598;2022-07-10T03:45:31;13.20;99.90
52187;DHT22;38161;53.020;6.598;2022-07-10T03:47:57;13.20;99.90
52187;DHT22;38161;53.020;6.598;2022-07-10T03:50:23;13.20;99.90
52187;DHT22;38161;53.020;6.598;2022-07-10T03:52:49;13.30;99.90
52187;DHT22;38161;53.020;6.598;2022-07-10T03:55:15;13.30;99.90
52187;DHT22;38161;53.020;6.598;2022-07-10T03:57:40;13.20;99.90
52187;DHT22;38161;53.020;6.598;2022-07-10T04:00:28;13.30;99.90
52187;DHT22;38161;53.020;6.598;2022-07-10T04:03:01;13.30;99.90
52187;DHT22;38161;53.020;6.598;2022-07-10T04:05:27;13.30;99.90
52187;DHT22;38161;53.020;6.598;2022-07-10T04:07:53;13.40;99.90
52187;DHT22;38161;53.020;6.598;2022-07-10T04:10:20;13.30;99.90
52187;DHT22;38161;53.020;6.598;2022-07-10T04:12:46;13.40;99.90
52187;DHT22;38161;53.020;6.598;2022-07-10T04:15:12;13.40;99.90
52187;DHT22;38161;53.020;6.598;2022-07-10T04:17:37;13.40;99.90
52187;DHT22;38161;53.020;6.598;2022-07-10T04:20:04;13.40;99.90
52187;DHT22;38161;53.020;6.598;2022-07-10T04:22:29;13.50;99.90
52187;DHT22;38161;53.020;6.598;2022-07-10T04:24:55;13.50;99.90
52187;DHT22;38161;53.020;6.598;2022-07-10T04:27:21;13.50;99.90
52187;DHT22;38161;53.020;6.598;2022-07-10T04:29:48;13.50;99.90
52187;DHT22;38161;53.020;6.598;2022-07-10T04:32:14;13.50;99.90
52187;DHT22;38161;53.020;6.598;2022-07-10T04:34:40;13.60;99.90
52187;DHT22;38161;53.020;6.598;2022-07-10T04:37:06;13.60;99.90
52187;DHT22;38161;53.020;6.598;2022-07-10T04:39:36;13.60;99.90
52187;DHT22;38161;53.020;6.598;2022-07-10T04:42:03;13.60;99.90
52187;DHT22;38161;53.020;6.598;2022-07-10T04:44:29;13.60;99.90
52187;DHT22;38161;53.020;6.598;2022-07-10T04:46:55;13.60;99.90
52187;DHT22;38161;53.020;6.598;2022-07-10T04:49:21;13.60;99.90
52187;DHT22;38161;53.020;6.598;2022-07-10T04:51:46;13.70;99.90
52187;DHT22;38161;53.020;6.598;2022-07-10T04:54:12;13.70;99.90
52187;DHT22;38161;53.020;6.598;2022-07-10T04:56:38;13.70;99.90
52187;DHT22;38161;53.020;6.598;2022-07-10T04:59:03;13.80;99.90
52187;DHT22;38161;53.020;6.598;2022-07-10T05:01:29;13.80;99.90
52187;DHT22;38161;53.020;6.598;2022-07-10T05:03:55;13.80;99.90
52187;DHT22;38161;53.020;6.598;2022-07-10T05:06:21;13.90;99.90
52187;DHT22;38161;53.020;6.598;2022-07-10T05:08:47;13.90;99.90
52187;DHT22;38161;53.020;6.598;2022-07-10T05:11:12;13.90;99.90
52187;DHT22;38161;53.020;6.598;2022-07-10T05:13:38;14.00;99.90
52187;DHT22;38161;53.020;6.598;2022-07-10T05:16:04;14.00;99.90
52187;DHT22;38161;53.020;6.598;2022-07-10T05:18:30;14.00;99.90
52187;DHT22;38161;53.020;6.598;2022-07-10T05:20:56;14.10;99.90
52187;DHT22;38161;53.020;6.598;2022-07-10T05:23:22;14.10;99.90
52187;DHT22;38161;53.020;6.598;2022-07-10T05:25:48;14.20;99.90
52187;DHT22;38161;53.020;6.598;2022-07-10T05:28:14;14.20;99.90
52187;DHT22;38161;53.020;6.598;2022-07-10T05:30:41;14.20;99.90
52187;DHT22;38161;53.020;6.598;2022-07-10T05:33:07;14.20;99.90
52187;DHT22;38161;53.020;6.598;2022-07-10T05:35:32;14.30;99.90
52187;DHT22;38161;53.020;6.598;2022-07-10T05:37:58;14.30;99.90
52187;DHT22;38161;53.020;6.598;2022-07-10T05:40:24;14.30;99.90
52187;DHT22;38161;53.020;6.598;2022-07-10T05:42:50;14.30;99.90
52187;DHT22;38161;53.020;6.598;2022-07-10T05:45:16;14.40;99.90
52187;DHT22;38161;53.020;6.598;2022-07-10T05:47:42;14.40;99.90
52187;DHT22;38161;53.020;6.598;2022-07-10T05:50:08;14.40;99.90
52187;DHT22;38161;53.020;6.598;2022-07-10T05:52:33;14.50;99.90
52187;DHT22;38161;53.020;6.598;2022-07-10T05:54:59;14.50;99.90
52187;DHT22;38161;53.020;6.598;2022-07-10T05:57:25;14.50;99.90
52187;DHT22;38161;53.020;6.598;2022-07-10T05:59:51;14.50;99.90
52187;DHT22;38161;53.020;6.598;2022-07-10T06:02:17;14.60;99.90
52187;DHT22;38161;53.020;6.598;2022-07-10T06:04:43;14.60;99.90
52187;DHT22;38161;53.020;6.598;2022-07-10T06:07:09;14.70;99.90
52187;DHT22;38161;53.020;6.598;2022-07-10T06:09:35;14.70;99.90
52187;DHT22;38161;53.020;6.598;2022-07-10T06:12:00;14.70;99.90
52187;DHT22;38161;53.020;6.598;2022-07-10T06:14:26;14.80;99.90
52187;DHT22;38161;53.020;6.598;2022-07-10T06:16:52;14.80;99.90
52187;DHT22;38161;53.020;6.598;2022-07-10T06:19:18;14.80;99.90
52187;DHT22;38161;53.020;6.598;2022-07-10T06:21:44;14.80;99.90
52187;DHT22;38161;53.020;6.598;2022-07-10T06:24:10;14.80;99.90
52187;DHT22;38161;53.020;6.598;2022-07-10T06:26:35;14.80;99.90
52187;DHT22;38161;53.020;6.598;2022-07-10T06:29:01;14.80;99.90
52187;DHT22;38161;53.020;6.598;2022-07-10T06:31:27;14.80;99.90
52187;DHT22;38161;53.020;6.598;2022-07-10T06:33:54;14.80;99.90
52187;DHT22;38161;53.020;6.598;2022-07-10T06:36:19;14.80;99.90
52187;DHT22;38161;53.020;6.598;2022-07-10T06:38:45;14.80;99.90
52187;DHT22;38161;53.020;6.598;2022-07-10T06:41:11;14.80;99.90
52187;DHT22;38161;53.020;6.598;2022-07-10T06:43:36;14.80;99.90
52187;DHT22;38161;53.020;6.598;2022-07-10T06:46:02;14.80;99.90
52187;DHT22;38161;53.020;6.598;2022-07-10T06:48:28;14.80;99.90
52187;DHT22;38161;53.020;6.598;2022-07-10T06:50:54;14.80;99.90
52187;DHT22;38161;53.020;6.598;2022-07-10T06:53:20;14.90;99.90
52187;DHT22;38161;53.020;6.598;2022-07-10T06:55:53;14.90;99.90
52187;DHT22;38161;53.020;6.598;2022-07-10T06:58:19;15.00;99.90
52187;DHT22;38161;53.020;6.598;2022-07-10T07:00:45;15.10;99.90
52187;DHT22;38161;53.020;6.598;2022-07-10T07:03:10;15.10;99.90
52187;DHT22;38161;53.020;6.598;2022-07-10T07:05:36;15.20;99.90
52187;DHT22;38161;53.020;6.598;2022-07-10T07:08:03;15.20;99.90
52187;DHT22;38161;53.020;6.598;2022-07-10T07:10:29;15.20;99.90
52187;DHT22;38161;53.020;6.598;2022-07-10T07:12:55;15.20;99.90
52187;DHT22;38161;53.020;6.598;2022-07-10T07:15:21;15.20;99.90
52187;DHT22;38161;53.020;6.598;2022-07-10T07:17:49;15.30;99.90
52187;DHT22;38161;53.020;6.598;2022-07-10T07:20:34;15.30;99.90
52187;DHT22;38161;53.020;6.598;2022-07-10T07:23:19;15.30;99.90
52187;DHT22;38161;53.020;6.598;2022-07-10T07:25:45;15.30;99.90
52187;DHT22;38161;53.020;6.598;2022-07-10T07:28:15;15.30;99.90
52187;DHT22;38161;53.020;6.598;2022-07-10T07:30:44;15.40;99.90
52187;DHT22;38161;53.020;6.598;2022-07-10T07:33:10;15.30;99.90
52187;DHT22;38161;53.020;6.598;2022-07-10T07:35:36;15.40;99.90
52187;DHT22;38161;53.020;6.598;2022-07-10T07:38:03;15.40;99.90
52187;DHT22;38161;53.020;6.598;2022-07-10T07:40:28;15.40;99.90
52187;DHT22;38161;53.020;6.598;2022-07-10T07:42:55;15.50;99.90
52187;DHT22;38161;53.020;6.598;2022-07-10T07:45:21;15.50;99.90
52187;DHT22;38161;53.020;6.598;2022-07-10T07:47:54;15.50;99.90
52187;DHT22;38161;53.020;6.598;2022-07-10T07:50:27;15.50;99.90
52187;DHT22;38161;53.020;6.598;2022-07-10T07:52:54;15.50;99.90
52187;DHT22;38161;53.020;6.598;2022-07-10T07:55:21;15.60;99.90
52187;DHT22;38161;53.020;6.598;2022-07-10T07:57:47;15.60;99.90
52187;DHT22;38161;53.020;6.598;2022-07-10T08:00:15;15.60;99.90
52187;DHT22;38161;53.020;6.598;2022-07-10T08:02:43;15.60;99.90
52187;DHT22;38161;53.020;6.598;2022-07-10T08:05:09;15.60;99.90
52187;DHT22;38161;53.020;6.598;2022-07-10T08:07:35;15.60;99.90
52187;DHT22;38161;53.020;6.598;2022-07-10T08:10:02;15.60;99.90
52187;DHT22;38161;53.020;6.598;2022-07-10T08:12:28;15.50;99.90
52187;DHT22;38161;53.020;6.598;2022-07-10T08:14:54;15.60;99.90
52187;DHT22;38161;53.020;6.598;2022-07-10T08:17:20;15.60;99.90
52187;DHT22;38161;53.020;6.598;2022-07-10T08:19:47;15.60;99.90
52187;DHT22;38161;53.020;6.598;2022-07-10T08:22:13;15.60;99.90
52187;DHT22;38161;53.020;6.598;2022-07-10T08:24:39;15.70;99.90
52187;DHT22;38161;53.020;6.598;2022-07-10T08:27:05;15.70;99.90
52187;DHT22;38161;53.020;6.598;2022-07-10T08:29:31;15.80;99.90
52187;DHT22;38161;53.020;6.598;2022-07-10T08:31:57;15.80;99.90
52187;DHT22;38161;53.020;6.598;2022-07-10T08:34:23;15.80;99.90
52187;DHT22;38161;53.020;6.598;2022-07-10T08:36:49;15.80;99.90
52187;DHT22;38161;53.020;6.598;2022-07-10T08:39:14;15.90;99.90
52187;DHT22;38161;53.020;6.598;2022-07-10T08:41:43;15.90;99.90
52187;DHT22;38161;53.020;6.598;2022-07-10T08:44:11;15.90;99.90
52187;DHT22;38161;53.020;6.598;2022-07-10T08:46:37;16.00;99.90
52187;DHT22;38161;53.020;6.598;2022-07-10T08:49:08;16.00;99.90
52187;DHT22;38161;53.020;6.598;2022-07-10T08:51:54;16.10;99.90
52187;DHT22;38161;53.020;6.598;2022-07-10T08:54:22;16.10;99.90
52187;DHT22;38161;53.020;6.598;2022-07-10T08:56:50;16.10;99.90
52187;DHT22;38161;53.020;6.598;2022-07-10T08:59:17;16.10;99.90
52187;DHT22;38161;53.020;6.598;2022-07-10T09:01:43;16.10;99.90
52187;DHT22;38161;53.020;6.598;2022-07-10T09:04:20;16.10;99.90
52187;DHT22;38161;53.020;6.598;2022-07-10T09:06:46;16.10;99.90
52187;DHT22;38161;53.020;6.598;2022-07-10T09:09:12;16.10;99.90
52187;DHT22;38161;53.020;6.598;2022-07-10T09:11:39;16.10;99.90
52187;DHT22;38161;53.020;6.598;2022-07-10T09:14:14;16.10;99.90
52187;DHT22;38161;53.020;6.598;2022-07-10T09:16:42;16.10;99.90
52187;DHT22;38161;53.020;6.598;2022-07-10T09:19:29;16.10;99.90
52187;DHT22;38161;53.020;6.598;2022-07-10T09:22:15;16.20;99.90
52187;DHT22;38161;53.020;6.598;2022-07-10T09:24:45;16.20;99.90
52187;DHT22;38161;53.020;6.598;2022-07-10T09:27:13;16.20;99.90
52187;DHT22;38161;53.020;6.598;2022-07-10T09:29:51;16.30;99.90
52187;DHT22;38161;53.020;6.598;2022-07-10T09:32:24;16.30;99.90
52187;DHT22;38161;53.020;6.598;2022-07-10T09:34:52;16.30;99.90
52187;DHT22;38161;53.020;6.598;2022-07-10T09:37:42;16.30;99.90
52187;DHT22;38161;53.020;6.598;2022-07-10T09:40:09;16.30;99.90
52187;DHT22;38161;53.020;6.598;2022-07-10T09:47:43;16.30;99.90
52187;DHT22;38161;53.020;6.598;2022-07-10T09:50:30;16.30;99.90
52187;DHT22;38161;53.020;6.598;2022-07-10T09:52:58;16.30;99.90
52187;DHT22;38161;53.020;6.598;2022-07-10T09:55:26;16.30;99.90
52187;DHT22;38161;53.020;6.598;2022-07-10T09:57:57;16.30;99.90
52187;DHT22;38161;53.020;6.598;2022-07-10T10:00:30;16.30;99.90
52187;DHT22;38161;53.020;6.598;2022-07-10T10:02:59;16.40;99.90
52187;DHT22;38161;53.020;6.598;2022-07-10T10:05:43;16.40;99.90
52187;DHT22;38161;53.020;6.598;2022-07-10T10:08:24;16.30;99.90
52187;DHT22;38161;53.020;6.598;2022-07-10T10:10:51;16.40;99.90
52187;DHT22;38161;53.020;6.598;2022-07-10T10:13:18;16.40;99.90
52187;DHT22;38161;53.020;6.598;2022-07-10T10:15:46;16.40;99.90
52187;DHT22;38161;53.020;6.598;2022-07-10T10:18:13;16.40;99.90
52187;DHT22;38161;53.020;6.598;2022-07-10T10:20:40;16.50;99.90
52187;DHT22;38161;53.020;6.598;2022-07-10T10:23:16;16.50;99.90
52187;DHT22;38161;53.020;6.598;2022-07-10T10:25:49;16.50;99.90
52187;DHT22;38161;53.020;6.598;2022-07-10T10:28:16;16.50;99.90
52187;DHT22;38161;53.020;6.598;2022-07-10T10:30:44;16.60;99.90
52187;DHT22;38161;53.020;6.598;2022-07-10T10:33:40;16.60;99.90
52187;DHT22;38161;53.020;6.598;2022-07-10T10:36:10;16.70;99.90
52187;DHT22;38161;53.020;6.598;2022-07-10T10:41:23;16.70;99.90
52187;DHT22;38161;53.020;6.598;2022-07-10T10:49:21;16.80;99.90
52187;DHT22;38161;53.020;6.598;2022-07-10T10:59:59;16.80;99.90
52187;DHT22;38161;53.020;6.598;2022-07-10T11:02:33;16.90;99.90
52187;DHT22;38161;53.020;6.598;2022-07-10T11:07:58;17.00;99.90
52187;DHT22;38161;53.020;6.598;2022-07-10T11:10:40;17.00;99.90
52187;DHT22;38161;53.020;6.598;2022-07-10T11:13:13;17.00;99.90
52187;DHT22;38161;53.020;6.598;2022-07-10T11:15:44;17.10;99.90
52187;DHT22;38161;53.020;6.598;2022-07-10T11:18:12;17.20;99.90
52187;DHT22;38161;53.020;6.598;2022-07-10T11:20:40;17.20;99.90
52187;DHT22;38161;53.020;6.598;2022-07-10T11:26:09;17.40;99.90
52187;DHT22;38161;53.020;6.598;2022-07-10T11:31:08;17.50;99.90
52187;DHT22;38161;53.020;6.598;2022-07-10T11:33:43;17.50;99.90
52187;DHT22;38161;53.020;6.598;2022-07-10T11:36:23;17.60;99.90
52187;DHT22;38161;53.020;6.598;2022-07-10T11:39:08;17.70;99.90
52187;DHT22;38161;53.020;6.598;2022-07-10T11:41:41;17.70;99.90
52187;DHT22;38161;53.020;6.598;2022-07-10T11:44:13;17.80;99.90
52187;DHT22;38161;53.020;6.598;2022-07-10T11:46:39;17.80;99.90
52187;DHT22;38161;53.020;6.598;2022-07-10T11:49:08;17.80;99.90
52187;DHT22;38161;53.020;6.598;2022-07-10T11:51:36;17.80;99.90
52187;DHT22;38161;53.020;6.598;2022-07-10T11:54:06;17.80;99.90
52187;DHT22;38161;53.020;6.598;2022-07-10T11:56:36;17.80;99.90
52187;DHT22;38161;53.020;6.598;2022-07-10T11:59:07;17.90;99.90
52187;DHT22;38161;53.020;6.598;2022-07-10T12:01:55;17.90;99.90
52187;DHT22;38161;53.020;6.598;2022-07-10T12:04:21;18.00;99.90
52187;DHT22;38161;53.020;6.598;2022-07-10T12:06:50;18.00;99.90
52187;DHT22;38161;53.020;6.598;2022-07-10T12:09:18;18.00;99.90
52187;DHT22;38161;53.020;6.598;2022-07-10T12:11:58;18.00;99.90
52187;DHT22;38161;53.020;6.598;2022-07-10T12:14:25;18.00;99.90
52187;DHT22;38161;53.020;6.598;2022-07-10T12:16:53;17.90;99.90
52187;DHT22;38161;53.020;6.598;2022-07-10T12:21:49;17.80;99.90
52187;DHT22;38161;53.020;6.598;2022-07-10T12:24:18;17.80;99.90
52187;DHT22;38161;53.020;6.598;2022-07-10T12:26:47;17.70;99.90
52187;DHT22;38161;53.020;6.598;2022-07-10T12:29:25;17.70;99.90
52187;DHT22;38161;53.020;6.598;2022-07-10T12:31:56;17.60;99.90
52187;DHT22;38161;53.020;6.598;2022-07-10T12:34:41;17.60;99.90
52187;DHT22;38161;53.020;6.598;2022-07-10T12:37:15;17.50;99.90
52187;DHT22;38161;53.020;6.598;2022-07-10T12:39:52;17.50;99.90
52187;DHT22;38161;53.020;6.598;2022-07-10T12:42:29;17.50;99.90
52187;DHT22;38161;53.020;6.598;2022-07-10T12:45:12;17.50;99.90
52187;DHT22;38161;53.020;6.598;2022-07-10T12:47:46;17.50;99.90
52187;DHT22;38161;53.020;6.598;2022-07-10T12:50:12;17.50;99.90
52187;DHT22;38161;53.020;6.598;2022-07-10T12:52:38;17.50;99.90
52187;DHT22;38161;53.020;6.598;2022-07-10T12:55:09;17.50;99.90
52187;DHT22;38161;53.020;6.598;2022-07-10T12:57:57;17.60;99.90
52187;DHT22;38161;53.020;6.598;2022-07-10T13:00:28;17.60;99.90
52187;DHT22;38161;53.020;6.598;2022-07-10T13:03:07;17.60;99.90
52187;DHT22;38161;53.020;6.598;2022-07-10T13:05:41;17.60;99.90
52187;DHT22;38161;53.020;6.598;2022-07-10T13:08:26;17.60;99.90
52187;DHT22;38161;53.020;6.598;2022-07-10T13:10:56;17.60;99.90
52187;DHT22;38161;53.020;6.598;2022-07-10T13:13:24;17.60;99.90
52187;DHT22;38161;53.020;6.598;2022-07-10T13:15:50;17.50;99.90
52187;DHT22;38161;53.020;6.598;2022-07-10T13:18:25;17.50;99.90
52187;DHT22;38161;53.020;6.598;2022-07-10T13:20:53;17.50;99.90
52187;DHT22;38161;53.020;6.598;2022-07-10T13:23:19;17.50;99.90
52187;DHT22;38161;53.020;6.598;2022-07-10T13:25:49;17.50;99.90
52187;DHT22;38161;53.020;6.598;2022-07-10T13:28:15;17.50;99.90
52187;DHT22;38161;53.020;6.598;2022-07-10T13:30:42;17.50;99.90
52187;DHT22;38161;53.020;6.598;2022-07-10T13:33:08;17.40;99.90
52187;DHT22;38161;53.020;6.598;2022-07-10T13:35:34;17.40;99.90
52187;DHT22;38161;53.020;6.598;2022-07-10T13:38:01;17.30;99.90
52187;DHT22;38161;53.020;6.598;2022-07-10T13:40:33;17.30;99.90
52187;DHT22;38161;53.020;6.598;2022-07-10T13:42:59;17.30;99.90
52187;DHT22;38161;53.020;6.598;2022-07-10T13:45:25;17.30;99.90
52187;DHT22;38161;53.020;6.598;2022-07-10T13:47:56;17.30;99.90
52187;DHT22;38161;53.020;6.598;2022-07-10T13:50:21;17.30;99.90
52187;DHT22;38161;53.020;6.598;2022-07-10T13:52:48;17.40;99.90
52187;DHT22;38161;53.020;6.598;2022-07-10T13:55:13;17.40;99.90
52187;DHT22;38161;53.020;6.598;2022-07-10T13:57:39;17.40;99.90
52187;DHT22;38161;53.020;6.598;2022-07-10T14:00:06;17.40;99.90
52187;DHT22;38161;53.020;6.598;2022-07-10T14:02:31;17.40;99.90
52187;DHT22;38161;53.020;6.598;2022-07-10T14:04:57;17.40;99.90
52187;DHT22;38161;53.020;6.598;2022-07-10T14:07:23;17.40;99.90
52187;DHT22;38161;53.020;6.598;2022-07-10T14:09:49;17.50;99.90
52187;DHT22;38161;53.020;6.598;2022-07-10T14:12:14;17.50;99.90
52187;DHT22;38161;53.020;6.598;2022-07-10T14:14:40;17.50;99.90
52187;DHT22;38161;53.020;6.598;2022-07-10T14:17:06;17.50;99.90
52187;DHT22;38161;53.020;6.598;2022-07-10T14:19:32;17.50;99.90
52187;DHT22;38161;53.020;6.598;2022-07-10T14:21:58;17.60;99.90
52187;DHT22;38161;53.020;6.598;2022-07-10T14:24:24;17.60;99.90
52187;DHT22;38161;53.020;6.598;2022-07-10T14:26:50;17.60;99.90
52187;DHT22;38161;53.020;6.598;2022-07-10T14:29:19;17.70;99.90
52187;DHT22;38161;53.020;6.598;2022-07-10T14:31:45;17.70;99.90
52187;DHT22;38161;53.020;6.598;2022-07-10T14:34:15;17.70;99.90
52187;DHT22;38161;53.020;6.598;2022-07-10T14:36:40;17.80;99.90
52187;DHT22;38161;53.020;6.598;2022-07-10T14:39:06;17.80;99.90
52187;DHT22;38161;53.020;6.598;2022-07-10T14:41:32;17.80;99.90
52187;DHT22;38161;53.020;6.598;2022-07-10T14:43:58;17.80;99.90
52187;DHT22;38161;53.020;6.598;2022-07-10T14:46:24;17.80;99.90
52187;DHT22;38161;53.020;6.598;2022-07-10T14:48:50;17.80;99.90
52187;DHT22;38161;53.020;6.598;2022-07-10T14:51:16;17.80;99.90
52187;DHT22;38161;53.020;6.598;2022-07-10T14:53:42;17.80;99.90
52187;DHT22;38161;53.020;6.598;2022-07-10T14:56:10;17.80;99.90
52187;DHT22;38161;53.020;6.598;2022-07-10T14:58:36;17.90;99.90
52187;DHT22;38161;53.020;6.598;2022-07-10T15:01:02;17.90;99.90
52187;DHT22;38161;53.020;6.598;2022-07-10T15:03:28;17.80;99.90
52187;DHT22;38161;53.020;6.598;2022-07-10T15:05:54;17.90;99.90
52187;DHT22;38161;53.020;6.598;2022-07-10T15:08:24;18.00;99.90
52187;DHT22;38161;53.020;6.598;2022-07-10T15:10:50;18.00;99.90
52187;DHT22;38161;53.020;6.598;2022-07-10T15:13:16;18.10;99.90
52187;DHT22;38161;53.020;6.598;2022-07-10T15:15:42;18.10;99.90
52187;DHT22;38161;53.020;6.598;2022-07-10T15:18:08;18.10;99.90
52187;DHT22;38161;53.020;6.598;2022-07-10T15:20:35;18.10;99.90
52187;DHT22;38161;53.020;6.598;2022-07-10T15:23:03;18.10;99.90
52187;DHT22;38161;53.020;6.598;2022-07-10T15:25:28;18.10;99.90
52187;DHT22;38161;53.020;6.598;2022-07-10T15:27:54;18.10;99.90
52187;DHT22;38161;53.020;6.598;2022-07-10T15:30:20;18.00;99.90
52187;DHT22;38161;53.020;6.598;2022-07-10T15:32:46;18.00;99.90
52187;DHT22;38161;53.020;6.598;2022-07-10T15:35:12;18.10;99.90
52187;DHT22;38161;53.020;6.598;2022-07-10T15:37:38;18.10;99.90
52187;DHT22;38161;53.020;6.598;2022-07-10T15:40:04;18.10;99.90
52187;DHT22;38161;53.020;6.598;2022-07-10T15:42:30;18.10;99.90
52187;DHT22;38161;53.020;6.598;2022-07-10T15:44:57;18.10;99.90
52187;DHT22;38161;53.020;6.598;2022-07-10T15:47:23;18.00;99.90
52187;DHT22;38161;53.020;6.598;2022-07-10T15:49:48;18.10;99.90
52187;DHT22;38161;53.020;6.598;2022-07-10T15:52:14;18.10;99.90
52187;DHT22;38161;53.020;6.598;2022-07-10T15:54:40;18.10;99.90
52187;DHT22;38161;53.020;6.598;2022-07-10T15:57:06;18.10;99.90
52187;DHT22;38161;53.020;6.598;2022-07-10T15:59:32;18.10;99.90
52187;DHT22;38161;53.020;6.598;2022-07-10T16:02:00;18.10;99.90
52187;DHT22;38161;53.020;6.598;2022-07-10T16:04:27;18.20;99.90
52187;DHT22;38161;53.020;6.598;2022-07-10T16:06:52;18.20;99.90